Impacts METAR Board
IDs:

KSAT - San Antonio Intl, TX, US

Updated at: 2300 UTC 18 Oct 2019
Potential Impact None Slight Moderate High
Time 18/11Z 18/12Z 18/13Z 18/14Z 18/15Z 18/16Z 18/17Z 18/18Z 18/19Z 18/20Z 18/21Z 18/22Z 18/23Z
Temp58 56 55 60 63 68 71 74 77 80 81 82 82
Dewpt48 48 47 48 48 46 46 47 51 52 53 54 56
Altim29.89 29.89 29.90 29.89 29.90 29.89 29.87 29.85 29.81 29.77 29.75 29.74 29.73
VIS10 10 10 10 10 10 10 10 10 10 10 10 10
CIG250 -- -- -- -- -- -- -- -- -- -- -- --
CoverBKNSCTFEWCLRCLRCLRCLRCLRCLRCLRCLRCLRCLR
FltCatVFRVFRVFRVFRVFRVFRVFRVFRVFRVFRVFRVFRVFR
WX--------------------------
WDir80000012014000170140170150
WSpd3 0 0 0 0 5 6 4 5 7 8 8 7
WGst-- -- -- -- -- -- -- -- -- -- -- -- --
Raw hourly METARs
KSAT 181051Z 08003KT 10SM SCT031 BKN250 14/09 A2989 RMK AO2 SLP106 T01440089
KSAT 181151Z 00000KT 10SM SCT250 13/09 A2989 RMK AO2 SLP109 T01330089 10156 20128 55001
KSAT 181251Z 00000KT 10SM FEW250 13/08 A2990 RMK AO2 SLP110 T01280083
KSAT 181351Z 00000KT 10SM CLR 16/09 A2989 RMK AO2 SLP108 T01560089
KSAT 181451Z 00000KT 10SM CLR 17/09 A2990 RMK AO2 SLP111 T01720089 53001
KSAT 181551Z 12005KT 10SM CLR 20/08 A2989 RMK AO2 SLP108 T02000078
KSAT 181651Z 14006KT 10SM CLR 22/08 A2987 RMK AO2 SLP103 T02170078
KSAT 181751Z VRB04KT 10SM CLR 23/08 A2985 RMK AO2 SLP091 T02330083 10233 20128 58018
KSAT 181851Z VRB05KT 10SM CLR 25/11 A2981 RMK AO2 SLP081 T02500106
KSAT 181951Z 17007KT 10SM CLR 27/11 A2977 RMK AO2 SLP067 T02670111
KSAT 182051Z 14008KT 10SM CLR 27/12 A2975 RMK AO2 SLP059 T02720117 56030
KSAT 182151Z 17008KT 10SM CLR 28/12 A2974 RMK AO2 SLP054 T02780122
KSAT 182251Z 15007KT 10SM CLR 28/13 A2973 RMK AO2 SLP050 T02780133